Hill City, KS (67642)

8:28 AM CST on December 07, 2016 (GMT -0600)
ASOS_HFM | | Change Station

Elev 2224 ft 39.38 °N, 99.83 °W | Updated 43 minutes ago

Overcast
Overcast
18 °F
Feels Like 6 °F
N
10
Wind Variable Wind from NNE
Gusts 0.0 mph

Today
High -- | Low -- °F
--% Chance of Precip.
Yesterday
High -- | Low -- °F
Precip. -- in
Pressure 30.35 in
Visibility 10.0 miles
Clouds Overcast 6000 ft
Windchill 6 °F
Dew Point 10 °F
Humidity 73%
Rainfall in
Snow Depth Not available.
7:46 AM 5:15 PM
First Quarter, 53% visible
METAR KHLC 071353Z AUTO 02011KT 10SM OVC060 M08/M12 A3026 RMK AO2 SLP278 T10781117
Pressure 30.35 in
Visibility 10.0 miles
Clouds Overcast 6000 ft
Windchill 6 °F
Dew Point 10 °F
Humidity 73%
Rainfall in
Snow Depth Not available.
7:46 AM 5:15 PM
First Quarter, 53% visible
METAR KHLC 071353Z AUTO 02011KT 10SM OVC060 M08/M12 A3026 RMK AO2 SLP278 T10781117

10-Day Weather Forecast

Almanac

Astronomy

Dec. 07, 2016 Rise Set
Actual Time
Civil Twilight
Nautical Twilight
Astronomical Twilight
Moon
Length of Visible Light
Length of Day
Tomorrow will be .
, % of the Moon is Illuminated

Today's Extremes

State Highs State Lows

Community

WunderPhotos

Upload Photos

1,956,116 photos uploaded!

WunderBlog® & News

Nearby

Air Quality

  Air Quality AQ Index Pollutant
Not available.

Snow Depth

Station Depth Elevation

Earthquake Activity

City Distance Mag. Time & Date
Minimum magnitude displayed is 2.5.

Coastal Water Temperatures

Place Temperature

Stations

Nearby Weather Stations

Station Location Temp. Windchill Dew Point Humidity Wind Precip. Elev Updated Type
                   

Watches & Warnings

There are currently no watches in effect.